Time;durP1;ratioP1;P1;durP2;ratioP2;P2;SDS_P1;SDS_P2;PMS_P1;PMS_P2;Temp;Humidity;BMP_temperature;BMP_pressure;BME280_temperature;BME280_humidity;BME280_pressure;Samples;Min_cycle;Max_cycle;Signal;HPM_P1;HPM_P2
2022/05/20 00:00:49;;;;;;;3.60;2.88;;;;;;;17.16;50.39;99826.59;5112469;28;20025;-78
2022/05/20 00:03:16;;;;;;;3.05;2.70;;;;;;;17.13;50.56;99831.22;5111413;28;20055;-78
2022/05/20 00:05:41;;;;;;;3.85;2.90;;;;;;;17.03;50.18;99825.78;5111240;28;20060;-77
2022/05/20 00:08:07;;;;;;;4.32;2.60;;;;;;;17.04;50.64;99840.63;5112859;28;20593;-78
2022/05/20 00:10:34;;;;;;;5.18;3.15;;;;;;;17.01;50.73;99843.44;5112741;28;20646;-78
2022/05/20 00:13:00;;;;;;;4.55;2.90;;;;;;;16.98;50.85;99842.81;5112378;28;20081;-78
2022/05/20 00:15:28;;;;;;;7.13;3.28;;;;;;;16.98;50.92;99848.94;5112644;28;20380;-78
2022/05/20 00:17:55;;;;;;;6.00;3.25;;;;;;;16.90;51.28;99833.69;5112344;28;20041;-78
2022/05/20 00:20:22;;;;;;;5.10;2.83;;;;;;;16.93;50.88;99843.16;5112443;28;20036;-78
2022/05/20 00:22:48;;;;;;;5.82;3.30;;;;;;;16.88;51.43;99827.69;5111981;28;20035;-78
2022/05/20 00:27:59;;;;;;;3.30;2.88;;;;;;;16.93;51.18;99838.72;5112380;28;20159;-78
2022/05/20 00:30:25;;;;;;;3.95;2.88;;;;;;;16.90;51.05;99831.06;5112243;28;20069;-78
2022/05/20 00:32:52;;;;;;;5.18;3.00;;;;;;;16.91;50.92;99839.78;5112020;28;20050;-78
2022/05/20 00:35:18;;;;;;;4.53;3.22;;;;;;;16.85;50.56;99827.06;5112174;28;20026;-78
2022/05/20 00:37:44;;;;;;;4.15;3.20;;;;;;;16.87;51.17;99833.06;5112043;28;20611;-78
2022/05/20 00:40:12;;;;;;;4.55;2.70;;;;;;;16.86;51.18;99837.50;5112568;28;20028;-78
2022/05/20 00:42:37;;;;;;;4.65;2.83;;;;;;;16.82;51.43;99832.56;5112222;28;20059;-78
2022/05/20 00:45:04;;;;;;;4.07;2.80;;;;;;;16.83;51.43;99837.69;5111893;28;20055;-78
2022/05/20 00:47:30;;;;;;;4.05;2.70;;;;;;;16.83;51.66;99834.22;5110833;28;20423;-78
2022/05/20 00:49:58;;;;;;;6.80;3.10;;;;;;;16.78;51.60;99826.66;5112116;28;20126;-77
2022/05/20 00:52:29;;;;;;;6.68;3.15;;;;;;;16.80;51.60;99824.75;5112280;28;20034;-78
2022/05/20 00:54:56;;;;;;;;;;;;;;;16.82;51.36;99837.81;5112401;28;20027;-78
2022/05/20 00:57:32;;;;;;;2.83;2.53;;;;;;;16.77;51.75;99832.00;5112179;28;19919;-78
2022/05/20 01:00:09;;;;;;;7.78;2.95;;;;;;;16.76;51.98;99832.97;5111819;28;20376;-78
2022/05/20 01:02:36;;;;;;;4.72;2.90;;;;;;;16.75;51.74;99839.16;5111919;28;20076;-78
2022/05/20 01:05:06;;;;;;;10.45;2.83;;;;;;;16.73;51.72;99841.06;5111894;28;20035;-78
2022/05/20 01:07:38;;;;;;;2.95;2.67;;;;;;;16.71;51.72;99841.13;5112106;28;20051;-78
2022/05/20 01:10:04;;;;;;;6.82;2.83;;;;;;;16.69;51.58;99841.25;5111734;28;20023;-78
2022/05/20 01:12:30;;;;;;;5.97;2.90;;;;;;;16.67;51.78;99842.28;5110711;28;20031;-78
2022/05/20 01:14:55;;;;;;;4.80;2.55;;;;;;;16.59;51.73;99840.19;5111731;28;20084;-78
2022/05/20 01:17:21;;;;;;;5.28;3.10;;;;;;;16.60;52.02;99849.78;5110836;28;20092;-78
2022/05/20 01:19:50;;;;;;;4.53;2.75;;;;;;;16.60;52.58;99847.16;5111854;28;20023;-78
2022/05/20 01:22:54;;;;;;;7.53;2.90;;;;;;;16.59;52.66;99852.50;5111901;28;20031;-78
2022/05/20 01:25:22;;;;;;;6.78;2.70;;;;;;;16.54;52.28;99834.41;5028826;28;20499;-78
2022/05/20 01:27:48;;;;;;;6.43;3.00;;;;;;;16.59;52.53;99842.81;5012072;28;20037;-78
2022/05/20 01:30:17;;;;;;;4.72;2.80;;;;;;;16.53;52.41;99838.00;5028858;28;20030;-78
2022/05/20 01:32:43;;;;;;;4.70;2.88;;;;;;;16.62;52.56;99847.03;5028683;28;20057;-78
2022/05/20 01:35:20;;;;;;;5.00;2.75;;;;;;;16.62;52.39;99850.50;5028817;28;20073;-78
2022/05/20 01:37:45;;;;;;;4.13;2.80;;;;;;;16.61;52.54;99854.09;5028529;28;20167;-78
2022/05/20 01:40:11;;;;;;;5.28;2.95;;;;;;;16.52;52.24;99836.31;5028797;28;20113;-78
2022/05/20 01:42:54;;;;;;;8.80;2.85;;;;;;;16.61;52.12;99858.50;5030441;28;20073;-78
2022/05/20 01:45:32;;;;;;;7.10;2.95;;;;;;;16.58;52.67;99849.03;5032250;28;20041;-78
2022/05/20 01:48:27;;;;;;;6.13;3.38;;;;;;;16.64;52.42;99867.03;5032060;28;20073;-79
2022/05/20 01:50:55;;;;;;;5.10;2.72;;;;;;;16.58;52.84;99851.66;4934870;29;20063;-77
2022/05/20 01:53:47;;;;;;;3.72;2.72;;;;;;;16.58;52.69;99851.66;4934973;29;20048;-78
2022/05/20 01:56:27;;;;;;;5.95;2.85;;;;;;;16.68;52.82;99871.09;4934810;29;20044;-78
2022/05/20 01:59:03;;;;;;;7.50;3.10;;;;;;;16.71;52.66;99867.44;4934711;29;20126;-78
2022/05/20 02:01:36;;;;;;;4.82;3.20;;;;;;;16.75;52.60;99868.09;5009423;28;20045;-78
2022/05/20 02:04:15;;;;;;;6.18;3.38;;;;;;;16.80;52.88;99863.38;5031669;28;20033;-78
2022/05/20 02:06:46;;;;;;;4.60;3.08;;;;;;;16.81;52.18;99859.78;5031994;28;20044;-78
2022/05/20 02:09:26;;;;;;;4.85;2.88;;;;;;;16.80;52.27;99861.56;5031864;28;20065;-78
2022/05/20 02:11:54;;;;;;;6.22;3.17;;;;;;;16.87;51.96;99862.00;5031601;28;20496;-78
2022/05/20 02:14:28;;;;;;;4.53;2.85;;;;;;;16.91;51.96;99874.00;5031749;28;20041;-78
2022/05/20 02:17:09;;;;;;;4.30;2.70;;;;;;;16.91;51.35;99866.94;5031513;28;20033;-78
2022/05/20 02:19:42;;;;;;;5.97;3.45;;;;;;;16.85;52.03;99859.47;5031698;28;20029;-78
2022/05/20 02:22:12;;;;;;;3.22;2.88;;;;;;;16.86;52.11;99862.97;5031280;28;20091;-78
2022/05/20 02:24:40;;;;;;;7.18;3.17;;;;;;;16.90;52.27;99874.94;5031657;28;20394;-78
2022/05/20 02:27:08;;;;;;;10.27;3.40;;;;;;;16.83;52.86;99860.53;5054444;28;20047;-78
2022/05/20 02:29:42;;;;;;;4.63;3.00;;;;;;;16.87;52.93;99864.63;5114538;28;20472;-78
2022/05/20 02:32:29;;;;;;;10.00;3.40;;;;;;;16.90;52.95;99862.63;5114191;28;20388;-78
2022/05/20 02:34:55;;;;;;;7.05;3.08;;;;;;;16.89;52.88;99852.19;5114292;28;20020;-78
2022/05/20 02:37:25;;;;;;;9.82;3.70;;;;;;;16.91;52.76;99855.59;5114273;28;20106;-78
2022/05/20 02:39:51;;;;;;;5.40;2.88;;;;;;;16.94;53.03;99869.38;5114117;28;20084;-78
2022/05/20 02:42:17;;;;;;;4.00;2.92;;;;;;;16.95;52.92;99864.94;5112870;28;20038;-78
2022/05/20 02:44:42;;;;;;;5.03;3.10;;;;;;;16.97;52.96;99870.94;5114014;28;20016;-78
2022/05/20 02:47:08;;;;;;;3.58;2.60;;;;;;;16.94;53.40;99865.91;5114295;28;20409;-78
2022/05/20 02:49:35;;;;;;;5.90;3.05;;;;;;;16.92;53.59;99868.63;5113942;28;20504;-78
2022/05/20 02:52:00;;;;;;;6.63;3.10;;;;;;;16.92;53.69;99875.69;5113868;28;20047;-78
2022/05/20 02:54:26;;;;;;;3.70;2.80;;;;;;;16.91;53.62;99876.63;5112888;28;20099;-78
2022/05/20 02:56:51;;;;;;;4.72;2.85;;;;;;;16.91;54.43;99880.09;5113622;28;20030;-78
2022/05/20 03:04:47;;;;;;;6.05;3.20;;;;;;;17.01;54.15;99872.41;5030753;28;20087;-78
2022/05/20 03:07:15;;;;;;;6.88;2.85;;;;;;;16.98;53.73;99872.63;5030726;28;20441;-78
2022/05/20 03:09:41;;;;;;;4.45;2.90;;;;;;;16.99;53.89;99871.69;5030686;28;20042;-78
2022/05/20 03:12:07;;;;;;;3.90;2.78;;;;;;;17.02;54.54;99878.50;5030404;28;20099;-78
2022/05/20 03:14:32;;;;;;;7.97;2.90;;;;;;;17.08;54.18;99884.19;5030633;28;20034;-78
2022/05/20 03:17:02;;;;;;;5.20;3.25;;;;;;;17.11;54.30;99891.03;5030366;28;20052;-78
2022/05/20 03:19:31;;;;;;;4.22;2.83;;;;;;;17.10;54.52;99876.19;5030529;28;20064;-78
2022/05/20 03:21:57;;;;;;;3.70;2.80;;;;;;;17.16;54.31;99886.28;5030120;28;20045;-78
2022/05/20 03:24:23;;;;;;;5.05;3.08;;;;;;;17.18;55.24;99885.22;5030407;28;20252;-78
2022/05/20 03:26:49;;;;;;;6.35;3.05;;;;;;;17.17;54.81;99880.06;5030687;28;20061;-78
2022/05/20 03:29:15;;;;;;;3.92;2.95;;;;;;;17.18;54.83;99876.47;5030187;28;20049;-79
2022/05/20 03:31:41;;;;;;;8.73;3.03;;;;;;;17.23;54.61;99882.25;5030303;28;20037;-78
2022/05/20 03:34:07;;;;;;;4.63;3.35;;;;;;;17.26;54.59;99891.75;5030132;28;20068;-78
2022/05/20 03:36:35;;;;;;;6.95;4.10;;;;;;;17.25;55.20;99890.06;5030184;28;20124;-78
2022/05/20 03:39:01;;;;;;;5.75;3.90;;;;;;;17.30;55.57;99893.22;5030126;28;20029;-78
2022/05/20 03:41:26;;;;;;;4.43;3.42;;;;;;;17.31;57.10;99894.88;5056531;28;20040;-78
2022/05/20 03:43:52;;;;;;;4.03;3.50;;;;;;;17.24;57.86;99889.22;5112716;28;20019;-78
2022/05/20 03:46:17;;;;;;;6.55;3.60;;;;;;;17.27;58.24;99902.16;5113021;28;20108;-78
2022/05/20 03:48:42;;;;;;;6.15;3.65;;;;;;;17.24;58.77;99889.22;5112826;28;20055;-78
2022/05/20 03:51:13;;;;;;;8.27;4.13;;;;;;;17.29;59.33;99904.69;5112888;28;20401;-78
2022/05/20 03:53:38;;;;;;;6.50;3.80;;;;;;;17.26;59.91;99902.28;5113111;28;20138;-78
2022/05/20 03:56:04;;;;;;;5.40;3.95;;;;;;;17.27;59.73;99907.41;5112665;28;20048;-78
2022/05/20 03:58:30;;;;;;;8.95;4.28;;;;;;;17.30;60.02;99920.38;5112887;28;20112;-78
2022/05/20 04:03:45;;;;;;;9.10;5.15;;;;;;;17.34;61.54;99923.63;5112572;28;20058;-78
2022/05/20 04:06:11;;;;;;;7.57;5.38;;;;;;;17.30;61.64;99919.53;5112275;28;20106;-79
2022/05/20 04:08:38;;;;;;;7.25;4.85;;;;;;;17.32;62.30;99926.38;5112763;28;20110;-79
2022/05/20 04:11:11;;;;;;;6.65;4.60;;;;;;;17.29;63.02;99918.69;5112423;28;20520;-78
2022/05/20 04:13:39;;;;;;;8.52;5.35;;;;;;;17.30;63.59;99914.28;5112564;28;20030;-78
2022/05/20 04:16:05;;;;;;;9.93;5.70;;;;;;;17.37;64.05;99926.06;5112305;28;20023;-78
2022/05/20 04:18:30;;;;;;;10.55;5.57;;;;;;;17.27;64.38;99910.03;5112664;28;20426;-78
2022/05/20 04:20:56;;;;;;;8.55;5.30;;;;;;;17.40;65.06;99933.72;5112261;28;20034;-78
2022/05/20 04:23:21;;;;;;;9.05;5.07;;;;;;;17.36;65.43;99916.47;5112363;28;20106;-78
2022/05/20 04:25:47;;;;;;;12.15;5.00;;;;;;;17.37;65.80;99920.78;5112689;28;20034;-78
2022/05/20 04:28:13;;;;;;;9.05;4.80;;;;;;;17.42;66.28;99934.47;5112158;28;20023;-79
2022/05/20 04:30:38;;;;;;;11.15;5.38;;;;;;;17.49;66.39;99940.13;5112229;28;20537;-78
2022/05/20 04:33:04;;;;;;;8.25;5.47;;;;;;;17.50;65.79;99933.94;5112157;28;20028;-79
2022/05/20 04:35:29;;;;;;;11.40;5.63;;;;;;;17.49;66.40;99933.09;5110929;28;20080;-78
2022/05/20 04:37:55;;;;;;;9.07;6.10;;;;;;;17.58;67.02;99950.88;5112249;28;20053;-78
2022/05/20 04:40:20;;;;;;;8.32;5.32;;;;;;;17.59;67.03;99942.03;5112264;28;20027;-79
2022/05/20 04:46:56;;;;;;;10.13;6.00;;;;;;;17.67;67.57;99938.84;5112080;28;20511;-76
2022/05/20 04:48:33;;;;;;;7.60;6.10;;;;;;;17.80;69.65;99959.91;5111916;28;20052;-76
2022/05/20 04:50:59;;;;;;;9.60;4.90;;;;;;;17.77;71.60;99953.06;5111889;28;20518;-76
2022/05/20 04:56:09;;;;;;;7.97;5.07;;;;;;;17.91;70.90;99968.75;5112152;28;20122;-76
2022/05/20 04:58:35;;;;;;;8.00;4.63;;;;;;;17.93;70.61;99958.06;5112258;28;20106;-78
2022/05/20 05:01:01;;;;;;;7.38;4.65;;;;;;;18.00;69.71;99961.97;5111864;28;20028;-78
2022/05/20 05:03:27;;;;;;;6.00;3.70;;;;;;;18.11;69.40;99972.53;5112000;28;20073;-79
2022/05/20 05:05:53;;;;;;;6.13;3.72;;;;;;;18.15;69.68;99967.91;5111988;28;20031;-78
2022/05/20 05:08:18;;;;;;;8.18;3.70;;;;;;;18.21;69.24;99970.09;5111672;28;20035;-79
2022/05/20 05:10:44;;;;;;;6.40;3.60;;;;;;;18.27;68.98;99964.38;5112061;28;20024;-78
2022/05/20 05:13:11;;;;;;;6.72;3.65;;;;;;;18.37;68.93;99964.53;5111792;28;20114;-78
2022/05/20 05:15:37;;;;;;;6.13;3.40;;;;;;;18.43;69.24;99970.19;5110537;28;20388;-78
2022/05/20 05:18:21;;;;;;;5.72;3.30;;;;;;;18.53;69.54;99977.41;5114375;28;20027;-78
2022/05/20 05:20:50;;;;;;;6.18;3.55;;;;;;;18.58;69.70;99973.50;5115770;28;20015;-78
2022/05/20 05:23:17;;;;;;;5.10;3.38;;;;;;;18.61;69.61;99973.25;5115601;28;20024;-78
2022/05/20 05:25:43;;;;;;;4.05;3.33;;;;;;;18.63;70.54;99974.00;5115790;28;20065;-78
2022/05/20 05:28:09;;;;;;;3.95;3.20;;;;;;;18.65;70.19;99971.22;5115397;28;20047;-79
2022/05/20 05:30:35;;;;;;;5.43;3.20;;;;;;;18.79;69.81;99975.50;5115557;28;20392;-78
2022/05/20 05:33:01;;;;;;;8.07;3.30;;;;;;;19.22;69.48;99977.53;5115301;28;20054;-79
2022/05/20 05:35:30;;;;;;;5.32;3.22;;;;;;;20.35;68.07;99973.75;5115630;28;20031;-79
2022/05/20 05:37:56;;;;;;;4.03;3.40;;;;;;;21.74;63.75;99964.59;5115689;28;20615;-78
2022/05/20 05:40:25;;;;;;;5.38;3.10;;;;;;;23.86;56.33;99964.53;5115339;28;20024;-79
2022/05/20 05:42:51;;;;;;;5.63;3.15;;;;;;;25.88;49.63;99965.38;5115284;28;20484;-78
2022/05/20 05:45:19;;;;;;;4.55;3.03;;;;;;;27.56;44.46;99964.84;5115026;28;20103;-79
2022/05/20 05:48:03;;;;;;;5.20;3.03;;;;;;;27.91;43.05;99966.22;5115163;28;20031;-79
2022/05/20 05:50:30;;;;;;;3.47;3.00;;;;;;;27.67;43.73;99971.66;5115542;28;20039;-79
2022/05/20 05:53:02;;;;;;;8.13;3.50;;;;;;;27.53;44.54;99976.72;5115228;28;20035;-79
2022/05/20 05:55:28;;;;;;;7.05;2.90;;;;;;;27.54;44.91;99973.03;5115173;28;20114;-79
2022/05/20 05:57:54;;;;;;;5.10;2.92;;;;;;;27.66;44.81;99973.50;5115185;28;20221;-78
2022/05/20 06:00:20;;;;;;;3.17;2.88;;;;;;;27.83;44.52;99966.25;5114832;28;20028;-79
2022/05/20 06:02:46;;;;;;;2.85;2.50;;;;;;;28.12;43.85;99972.78;5115207;28;20028;-79
2022/05/20 06:05:12;;;;;;;3.10;2.78;;;;;;;28.41;43.28;99964.91;5114785;28;20496;-79
2022/05/20 06:07:37;;;;;;;4.72;3.00;;;;;;;28.63;42.54;99962.38;5115086;27;20042;-79
2022/05/20 06:10:04;;;;;;;3.83;2.83;;;;;;;28.79;42.04;99962.25;5113313;28;20465;-79
2022/05/20 06:12:31;;;;;;;5.78;2.75;;;;;;;29.01;42.01;99972.09;5114772;28;20023;-79
2022/05/20 06:14:57;;;;;;;3.45;2.78;;;;;;;29.21;41.65;99964.38;5113372;28;20483;-79
2022/05/20 06:17:22;;;;;;;5.53;2.78;;;;;;;29.47;40.77;99960.38;5114919;28;20020;-79
2022/05/20 06:19:48;;;;;;;4.93;2.50;;;;;;;29.78;40.71;99974.41;5114827;28;20031;-79
2022/05/20 06:22:13;;;;;;;4.30;2.65;;;;;;;30.07;40.10;99968.13;5114309;28;20066;-79
2022/05/20 06:24:38;;;;;;;2.40;2.20;;;;;;;30.22;39.30;99961.94;5114569;27;20028;-79
2022/05/20 06:27:04;;;;;;;2.88;2.58;;;;;;;30.40;38.76;99966.84;5114381;28;20024;-79
2022/05/20 06:29:30;;;;;;;6.20;2.60;;;;;;;30.71;38.95;99969.19;5114123;28;20587;-79
2022/05/20 06:31:55;;;;;;;2.90;2.30;;;;;;;31.05;38.16;99963.88;5114673;28;20103;-79
2022/05/20 06:34:21;;;;;;;4.38;2.20;;;;;;;32.04;36.76;99966.28;5114293;28;20106;-79
2022/05/20 06:39:49;;;;;;;2.40;2.13;;;;;;;35.39;30.93;99974.53;5114349;28;20039;-79
2022/05/20 06:42:15;;;;;;;4.00;2.28;;;;;;;37.11;28.13;99972.06;5114157;28;20060;-79
2022/05/20 06:44:41;;;;;;;2.53;2.33;;;;;;;38.46;25.88;99964.41;5114093;28;20039;-79
2022/05/20 06:47:07;;;;;;;4.45;2.40;;;;;;;39.63;24.27;99984.38;5114075;28;20457;-79
2022/05/20 06:49:33;;;;;;;3.10;2.40;;;;;;;40.12;23.09;99985.25;5113998;28;20055;-79
2022/05/20 06:52:00;;;;;;;5.55;2.70;;;;;;;40.54;22.77;99978.25;5114080;28;20028;-79
2022/05/20 06:54:27;;;;;;;3.05;2.50;;;;;;;40.92;22.66;99982.66;5113759;28;20032;-79
2022/05/20 06:56:53;;;;;;;4.85;2.60;;;;;;;41.03;21.87;99980.81;5114139;28;20035;-79
2022/05/20 06:59:19;;;;;;;4.18;2.45;;;;;;;41.06;21.70;99985.78;5113952;28;20023;-79
2022/05/20 07:01:44;;;;;;;3.45;2.15;;;;;;;40.82;22.24;99979.84;5113869;28;20107;-79
2022/05/20 07:04:09;;;;;;;4.22;2.60;;;;;;;40.55;22.23;99982.66;5113728;28;20032;-79
2022/05/20 07:06:35;;;;;;;4.75;2.40;;;;;;;40.21;22.36;99977.44;5113793;28;20384;-79
2022/05/20 07:09:04;;;;;;;7.22;2.90;;;;;;;39.92;22.92;99966.75;5112632;28;20054;-80
2022/05/20 07:11:29;;;;;;;2.58;2.38;;;;;;;39.60;23.37;99961.16;5111192;28;20496;-79
2022/05/20 07:13:56;;;;;;;2.75;2.25;;;;;;;39.39;23.53;99965.56;5113624;28;20044;-79
2022/05/20 07:16:29;;;;;;;3.05;2.22;;;;;;;39.37;23.89;99965.00;5113470;28;20024;-79
2022/05/20 07:18:55;;;;;;;4.63;2.25;;;;;;;39.38;23.71;99961.19;5113782;28;20426;-79
2022/05/20 07:21:21;;;;;;;4.32;2.60;;;;;;;39.36;23.32;99974.25;5113206;28;20024;-79
2022/05/20 07:23:47;;;;;;;2.60;2.20;;;;;;;38.99;23.75;99974.00;5112883;28;20023;-79
2022/05/20 07:26:15;;;;;;;19.23;2.72;;;;;;;38.81;23.73;99972.38;5112819;28;20536;-79
2022/05/20 07:28:41;;;;;;;2.17;1.98;;;;;;;38.77;23.84;99970.34;5113320;28;20149;-79
2022/05/20 07:31:07;;;;;;;1.95;1.83;;;;;;;38.83;23.64;99969.38;5112947;28;20530;-79
2022/05/20 07:33:33;;;;;;;3.70;2.00;;;;;;;39.02;23.93;99978.09;5112981;28;20058;-77
2022/05/20 07:35:59;;;;;;;2.78;1.90;;;;;;;39.00;23.86;99972.09;5112621;28;20051;-77
2022/05/20 07:38:25;;;;;;;2.47;2.28;;;;;;;39.02;23.63;99980.81;5112639;28;20092;-77
2022/05/20 07:40:50;;;;;;;4.32;2.20;;;;;;;39.25;23.32;99975.19;5112541;28;20026;-78
2022/05/20 07:43:20;;;;;;;3.95;2.33;;;;;;;39.52;22.96;99975.25;5112676;27;20111;-78
2022/05/20 07:45:46;;;;;;;4.43;1.90;;;;;;;39.78;22.50;99965.53;5112882;28;20481;-79
2022/05/20 07:48:11;;;;;;;2.58;1.92;;;;;;;39.90;22.76;99973.53;5112275;28;20024;-79
2022/05/20 07:50:43;;;;;;;2.78;2.00;;;;;;;39.74;22.32;99972.56;5112837;28;20028;-79
2022/05/20 07:53:21;;;;;;;1.90;1.80;;;;;;;39.59;22.67;99975.06;5112808;28;20048;-79
2022/05/20 07:56:13;;;;;;;2.10;2.00;;;;;;;39.50;23.25;99980.16;5112928;28;20085;-79
2022/05/20 07:58:45;;;;;;;4.18;2.20;;;;;;;39.27;23.48;99978.47;5112848;28;20032;-78
2022/05/20 08:01:11;;;;;;;2.20;1.98;;;;;;;38.98;23.24;99979.66;5112354;28;20043;-79
2022/05/20 08:06:23;;;;;;;1.98;1.77;;;;;;;38.38;23.39;99968.38;5112378;28;20101;-78
2022/05/20 08:08:48;;;;;;;2.08;1.88;;;;;;;38.20;23.84;99983.00;5112539;28;20383;-79
2022/05/20 08:11:15;;;;;;;2.53;1.92;;;;;;;37.89;24.17;99991.69;5112283;28;20015;-78
2022/05/20 08:13:40;;;;;;;2.28;2.08;;;;;;;37.05;24.86;99969.47;5112319;28;20038;-78
2022/05/20 08:16:06;;;;;;;2.90;2.08;;;;;;;35.88;26.80;99984.38;5112619;28;20020;-79
2022/05/20 08:18:32;;;;;;;2.25;2.05;;;;;;;34.84;27.81;99967.16;5112138;28;20026;-78
2022/05/20 08:20:59;;;;;;;3.50;2.50;;;;;;;33.82;29.54;99970.94;5112600;28;20027;-78
2022/05/20 08:23:25;;;;;;;3.85;2.15;;;;;;;33.09;30.86;99974.69;5110863;28;20107;-78
2022/05/20 08:25:50;;;;;;;2.83;2.00;;;;;;;32.54;32.21;99976.75;5112656;28;20106;-79
2022/05/20 08:28:17;;;;;;;2.30;2.10;;;;;;;32.05;32.75;99970.63;5112035;28;20030;-78
2022/05/20 08:30:48;;;;;;;2.78;2.20;;;;;;;31.68;33.55;99968.38;5112619;28;20020;-78
2022/05/20 08:33:13;;;;;;;2.47;2.28;;;;;;;31.44;34.29;99967.06;5112327;28;20069;-78
2022/05/20 08:35:38;;;;;;;2.60;2.38;;;;;;;31.09;34.72;99976.94;5112635;28;20020;-78
2022/05/20 08:38:04;;;;;;;2.40;2.20;;;;;;;30.71;35.57;99955.75;5112285;28;20028;-78
2022/05/20 08:40:37;;;;;;;4.13;2.38;;;;;;;30.46;36.17;99958.00;5112009;28;20130;-78
2022/05/20 08:43:04;;;;;;;3.58;2.30;;;;;;;30.24;36.40;99960.69;5112229;28;20106;-79
2022/05/20 08:45:33;;;;;;;2.75;2.25;;;;;;;30.06;36.94;99960.28;5112022;28;20088;-79
2022/05/20 08:47:58;;;;;;;2.50;2.30;;;;;;;29.90;37.54;99960.50;5112292;28;20039;-79
2022/05/20 08:50:35;;;;;;;3.33;2.30;;;;;;;29.72;37.89;99964.44;5111847;28;20048;-79
2022/05/20 08:53:01;;;;;;;5.57;2.50;;;;;;;29.62;38.51;99963.88;5116532;28;20036;-79
2022/05/20 08:55:27;;;;;;;2.33;2.20;;;;;;;29.52;38.72;99957.97;5115897;28;20054;-79
2022/05/20 08:58:03;;;;;;;4.95;2.70;;;;;;;29.45;38.38;99957.84;5115914;28;20028;-79
2022/05/20 09:00:30;;;;;;;2.38;2.17;;;;;;;29.28;38.98;99961.75;5115995;28;20028;-78
2022/05/20 09:02:56;;;;;;;2.47;2.28;;;;;;;29.20;39.84;99953.78;5115594;28;20031;-78
2022/05/20 09:05:33;;;;;;;2.53;2.28;;;;;;;29.15;39.70;99959.72;5115355;28;20028;-78
2022/05/20 09:08:24;;;;;;;3.63;2.67;;;;;;;29.06;39.52;99958.97;5116295;28;20024;-78
2022/05/20 09:10:58;;;;;;;2.40;2.20;;;;;;;29.01;39.00;99957.88;5095813;28;20031;-78
2022/05/20 09:16:21;;;;;;;2.58;1.80;;;;;;;28.87;39.88;99937.22;5095654;28;20081;-78
2022/05/20 09:18:50;;;;;;;2.80;2.20;;;;;;;28.90;39.52;99936.81;5106677;28;20110;-78
2022/05/20 09:21:34;;;;;;;3.75;2.10;;;;;;;28.80;40.22;99945.97;5115377;27;20031;-78
2022/05/20 09:24:06;;;;;;;2.42;2.25;;;;;;;28.66;40.57;99938.75;5113315;28;20027;-78
2022/05/20 09:26:44;;;;;;;2.38;2.17;;;;;;;28.73;40.33;99936.97;5115371;28;20028;-78
2022/05/20 09:29:14;;;;;;;2.50;2.30;;;;;;;28.85;40.61;99943.56;5115557;28;20425;-79
2022/05/20 09:31:56;;;;;;;2.67;2.47;;;;;;;28.88;41.04;99945.06;5111708;28;20129;-79
2022/05/20 09:34:24;;;;;;;3.65;2.28;;;;;;;28.83;40.96;99934.88;5114435;28;20573;-79
2022/05/20 09:36:55;;;;;;;2.65;2.40;;;;;;;28.73;40.70;99938.84;5115519;28;20058;-79
2022/05/20 09:39:27;;;;;;;3.45;2.20;;;;;;;28.68;41.12;99938.56;5115495;28;20015;-79
2022/05/20 09:41:55;;;;;;;2.60;2.40;;;;;;;28.57;40.63;99923.75;5115535;28;20059;-79
2022/05/20 09:44:24;;;;;;;2.83;2.30;;;;;;;28.51;40.81;99917.25;5113986;28;20067;-79
2022/05/20 09:47:04;;;;;;;3.20;2.80;;;;;;;28.49;41.11;99919.31;5115501;27;20379;-79
2022/05/20 09:49:44;;;;;;;2.35;2.15;;;;;;;28.51;41.36;99921.78;5113614;28;20439;-78
2022/05/20 09:52:22;;;;;;;4.07;2.53;;;;;;;28.56;41.30;99925.56;5115384;28;20091;-79
2022/05/20 09:54:59;;;;;;;2.97;2.50;;;;;;;28.62;41.65;99923.22;5115273;28;20029;-79
2022/05/20 09:57:38;;;;;;;2.78;2.30;;;;;;;28.68;41.34;99920.63;5114988;27;20072;-78
2022/05/20 10:00:13;;;;;;;5.80;2.30;;;;;;;28.76;41.33;99925.91;5114957;28;20472;-79
2022/05/20 10:02:53;;;;;;;4.15;2.03;;;;;;;28.76;41.18;99909.81;5114213;28;20028;-79
2022/05/20 10:05:57;;;;;;;4.15;2.55;;;;;;;28.78;40.55;99910.50;5114899;28;20488;-79
2022/05/20 10:08:38;;;;;;;2.92;2.63;;;;;;;28.73;40.75;99904.00;5051630;28;20039;-79
2022/05/20 10:11:16;;;;;;;3.05;2.28;;;;;;;28.80;41.23;99912.97;5051749;28;20115;-79
2022/05/20 10:13:46;;;;;;;3.50;2.40;;;;;;;28.76;41.03;99915.19;5051775;28;20084;-79
2022/05/20 10:16:34;;;;;;;2.55;2.35;;;;;;;28.88;41.17;99906.69;5050249;28;20103;-79
2022/05/20 10:19:21;;;;;;;3.70;2.65;;;;;;;28.90;41.10;99910.00;5031009;28;20121;-78
2022/05/20 10:22:00;;;;;;;2.60;2.40;;;;;;;28.88;41.24;99909.38;5027344;28;20029;-78
2022/05/20 10:24:34;;;;;;;3.35;2.30;;;;;;;28.92;40.60;99903.47;5029533;28;20431;-79
2022/05/20 10:27:12;;;;;;;4.57;2.92;;;;;;;28.89;40.23;99905.69;5026735;28;20088;-79
2022/05/20 10:32:59;;;;;;;3.83;2.78;;;;;;;28.79;39.77;99898.75;5012035;28;20048;-79
2022/05/20 10:35:36;;;;;;;5.65;4.55;;;;;;;28.62;40.10;99894.56;5011612;28;20041;-79
2022/05/20 10:38:07;;;;;;;4.63;3.03;;;;;;;28.79;41.04;99885.34;5011721;28;20037;-79
2022/05/20 10:40:44;;;;;;;3.40;3.10;;;;;;;28.89;40.41;99901.13;5011705;28;20029;-79
2022/05/20 10:43:24;;;;;;;3.28;2.92;;;;;;;28.82;39.54;99895.69;5043726;28;20040;-79
2022/05/20 10:49:13;;;;;;;8.68;7.72;;;;;;;28.81;39.76;99887.81;5070617;28;20128;-79
2022/05/20 10:52:00;;;;;;;5.32;4.07;;;;;;;28.84;40.43;99890.16;5053184;28;20500;-79
2022/05/20 10:55:00;;;;;;;5.57;4.05;;;;;;;28.84;40.17;99888.28;5070446;28;20036;-79
2022/05/20 10:57:48;;;;;;;4.00;2.95;;;;;;;28.85;40.86;99881.91;5113917;28;20102;-79
2022/05/20 11:00:19;;;;;;;3.97;3.15;;;;;;;28.79;41.35;99873.78;5114031;28;20110;-79
2022/05/20 11:03:03;;;;;;;3.50;2.70;;;;;;;28.79;41.55;99881.81;5113782;28;20024;-79
2022/05/20 11:05:46;;;;;;;4.75;2.67;;;;;;;28.84;42.53;99880.25;5113702;28;20034;-79
2022/05/20 11:08:54;;;;;;;3.38;2.85;;;;;;;28.95;42.16;99868.25;5113782;28;20023;-78
2022/05/20 11:11:37;;;;;;;4.05;2.63;;;;;;;29.01;42.47;99869.38;5050068;28;20171;-79
2022/05/20 11:14:29;;;;;;;4.03;2.97;;;;;;;29.06;41.74;99872.31;5033277;28;20036;-78
2022/05/20 11:17:27;;;;;;;5.35;3.95;;;;;;;29.00;41.95;99873.91;5050516;28;20029;-78
2022/05/20 11:20:13;;;;;;;4.50;3.63;;;;;;;29.03;41.87;99875.38;5050603;28;20033;-78
2022/05/20 11:23:06;;;;;;;4.05;3.65;;;;;;;28.92;42.62;99859.75;5050174;28;20045;-79
2022/05/20 11:25:34;;;;;;;4.88;3.92;;;;;;;28.92;43.07;99868.59;5050199;28;20033;-78
2022/05/20 11:28:38;;;;;;;3.10;2.75;;;;;;;29.03;43.20;99880.72;5050298;28;20045;-78
2022/05/20 11:31:27;;;;;;;3.03;2.40;;;;;;;29.13;42.83;99875.94;4990882;28;20035;-78
2022/05/20 11:34:14;;;;;;;2.60;2.40;;;;;;;29.13;42.43;99872.44;4991001;28;20042;-78
2022/05/20 11:37:17;;;;;;;4.80;3.10;;;;;;;29.13;42.59;99867.06;4990742;28;20050;-79
2022/05/20 11:40:25;;;;;;;4.72;3.20;;;;;;;29.18;42.51;99867.34;4990629;28;20037;-78
2022/05/20 11:43:00;;;;;;;3.65;2.60;;;;;;;29.30;42.38;99869.34;4990687;28;20046;-78
2022/05/20 11:45:47;;;;;;;3.92;3.53;;;;;;;29.31;41.70;99846.84;4990438;28;20042;-78
2022/05/20 11:48:29;;;;;;;3.38;3.05;;;;;;;29.43;41.67;99854.44;5044350;28;20028;-79
2022/05/20 11:51:25;;;;;;;5.80;3.20;;;;;;;29.47;41.15;99845.81;5069932;28;20071;-78
2022/05/20 11:53:56;;;;;;;10.02;4.00;;;;;;;29.45;41.30;99847.00;5053236;28;20533;-78
2022/05/20 11:56:21;;;;;;;4.35;3.83;;;;;;;29.50;41.32;99858.03;5029471;28;20040;-79
2022/05/20 11:58:53;;;;;;;4.50;3.53;;;;;;;29.41;41.25;99841.19;5029905;28;20045;-78
2022/05/20 12:01:20;;;;;;;3.55;2.90;;;;;;;29.36;41.92;99837.41;5029844;28;20042;-78
2022/05/20 12:06:32;;;;;;;3.35;2.75;;;;;;;29.19;42.18;99820.72;5029796;28;20389;-78
2022/05/20 12:08:59;;;;;;;4.40;2.60;;;;;;;29.18;42.53;99830.59;5067537;28;20048;-78
2022/05/20 12:11:37;;;;;;;3.90;2.53;;;;;;;29.17;42.76;99823.59;5069312;28;20483;-79
2022/05/20 12:14:05;;;;;;;3.88;2.88;;;;;;;29.16;42.45;99818.38;5069228;28;20072;-78
2022/05/20 12:16:32;;;;;;;3.17;2.60;;;;;;;29.08;42.29;99822.88;5066900;28;20043;-79
2022/05/20 12:24:45;;;;;;;3.05;2.75;;;;;;;28.95;42.93;99814.63;5069376;28;20198;-78
2022/05/20 12:27:10;;;;;;;3.88;2.83;;;;;;;29.13;42.42;99822.28;5087024;28;20439;-78
2022/05/20 12:29:39;;;;;;;3.15;2.70;;;;;;;29.25;42.40;99807.38;5112069;28;20023;-79
2022/05/20 12:32:41;;;;;;;5.13;3.13;;;;;;;29.39;42.19;99813.72;5112192;28;20084;-77